Terminal Aerodrome Forecast
Issued by NWS Charleston, WV

Current Version | Previous Version | Graphics & Text | Print | Product List | Glossary On
Versions: 1 2 3 4 5 6 7 8 9 10 11 12 13 14 15 16 17 18 19 20 21 22 23
000
FTUS41 KRLX 171600 AAA
TAFEKN
TAF AMD
KEKN 171605Z 1716/1812 27011G18KT 6SM -SHSNDZ OVC014
      TEMPO 1716/1719 4SM -SHSN BR
     FM172300 27009KT P6SM OVC016=

USA.gov is the U.S. government's official web portal to all federal, state and local government web resources and services.